Hauptseite
METAR-TAF:

METAR-TAF

Flughäfen :

Weno, Mikronesien

Flughafen Chuuk

Breite: 07-28N, Länge: 151-51E, Höhe: 3 m

Beobachtung

Neuester Wetterbericht von vor 1 Stunde und 2 Minuten, um 08:50 UTC
Wind 4 kt aus unterschiedlichen Richtungen
Temperatur 29°C
Luftfeuchtigkeit 84%
Luftdruck 1008 hPa
Sichtweite: 24.1 km
Leicht bewölkt in der Höhe von 1400 ft
Aufgelockert bewölkt in der Höhe von 28000 ft

METAR: PTKK 210850Z VRB04KT 15SM FEW014 SCT280 29/26 A2976 RMK SLP079 8/101 T02890256 52015

Zeit: 19:52 (09:52 UTC)

Prognose

Neuester Wetterbericht von vor 4 Stunden und 20 Minuten, um 05:32 UTC
Gültige Prognose vom 21 um 06 UTC bis 22 um 06 UTC
Wind 11 kt aus Nordost
Sichtweite: 10 km
Leicht bewölkt in der Höhe von 1400 ft
Aufgelockert bewölkt in der Höhe von 5000 ft

TAF: PTKK 210532Z 2106/2206 05011KT P6SM FEW014 SCT050

Wetterbeobachtungen und Prognosen von mehr als 4000 Flughäfen (METAR und TAF Bericht).

Die verfügbaren Stationen werden durch gelbe und rote Markierungen auf der Karte dargestellt.

Führen Sie die Maus auf sie, um den Namen der Station zu sehen.

Darauf klicken, um die Beobachtung von Wetterbeobachtungen und Prognosen zu sehen.

Um die Karte zu ändern : klicken Sie auf den grünen Tasten mit einem schwarzen Kreuz Zum Vergrößern, auf den grünen Button mit einem Gedankenstrich zu verkleinern, oder auf die grünen Pfeile für benachbarte Karten.


METAR-TAF: